createdAt,value
2023-04-16T00:01:24.242Z,1.80
2023-04-16T00:03:50.777Z,2.17
2023-04-16T00:06:17.361Z,2.00
2023-04-16T00:08:43.863Z,1.70
2023-04-16T00:11:10.405Z,1.70
2023-04-16T00:13:37.147Z,1.60
2023-04-16T00:16:03.695Z,1.67
2023-04-16T00:18:30.193Z,1.83
2023-04-16T00:20:56.681Z,1.95
2023-04-16T00:23:25.155Z,1.77
2023-04-16T00:25:51.744Z,2.50
2023-04-16T00:28:18.170Z,2.10
2023-04-16T00:30:44.627Z,2.35
2023-04-16T00:33:11.047Z,1.98
2023-04-16T00:35:37.497Z,2.20
2023-04-16T00:38:03.933Z,1.53
2023-04-16T00:40:30.617Z,1.90
2023-04-16T00:42:56.974Z,1.95
2023-04-16T00:45:23.393Z,1.85
2023-04-16T00:47:50.005Z,2.20
2023-04-16T00:50:17.620Z,1.97
2023-04-16T00:52:46.837Z,1.95
2023-04-16T00:55:13.468Z,2.25
2023-04-16T00:57:39.815Z,1.80
2023-04-16T01:00:06.976Z,1.75
2023-04-16T01:02:34.565Z,2.37
2023-04-16T01:05:02.115Z,2.25
2023-04-16T01:07:28.741Z,3.10
2023-04-16T01:09:55.377Z,3.08
2023-04-16T01:12:21.940Z,2.78
2023-04-16T01:14:48.750Z,2.87
2023-04-16T01:17:15.156Z,3.13
2023-04-16T01:19:43.404Z,2.80
2023-04-16T01:22:09.762Z,2.85
2023-04-16T01:24:36.522Z,2.67
2023-04-16T01:27:03.018Z,2.93
2023-04-16T01:29:29.418Z,2.75
2023-04-16T01:31:55.783Z,2.92
2023-04-16T01:34:22.167Z,3.28
2023-04-16T01:36:48.614Z,2.42
2023-04-16T01:39:16.336Z,3.17
2023-04-16T01:41:43.161Z,3.20
2023-04-16T01:44:09.633Z,2.72
2023-04-16T01:46:37.764Z,2.75
2023-04-16T01:49:05.537Z,2.65
2023-04-16T01:51:32.211Z,3.37
2023-04-16T01:53:58.893Z,3.38
2023-04-16T01:56:25.463Z,2.97
2023-04-16T01:58:53.158Z,3.28
2023-04-16T02:01:19.969Z,3.60
2023-04-16T02:03:47.101Z,3.40
2023-04-16T02:06:13.710Z,3.75
2023-04-16T02:08:40.830Z,3.72
2023-04-16T02:11:07.573Z,4.28
2023-04-16T02:13:33.944Z,4.93
2023-04-16T02:16:00.484Z,4.17
2023-04-16T02:18:27.084Z,4.50
2023-04-16T02:20:53.495Z,3.97
2023-04-16T02:23:19.928Z,4.57
2023-04-16T02:25:47.528Z,4.38
2023-04-16T02:28:16.026Z,5.00
2023-04-16T02:30:43.463Z,5.72
2023-04-16T02:33:11.667Z,5.10
2023-04-16T02:35:39.276Z,4.95
2023-04-16T02:38:06.010Z,4.90
2023-04-16T02:40:32.404Z,4.70
2023-04-16T02:42:58.935Z,5.07
2023-04-16T02:45:25.516Z,5.15
2023-04-16T02:47:52.125Z,5.38
2023-04-16T02:50:18.734Z,4.93
2023-04-16T02:52:45.330Z,5.17
2023-04-16T02:55:11.918Z,5.22
2023-04-16T02:57:38.359Z,6.00
2023-04-16T03:00:05.198Z,5.15
2023-04-16T03:02:31.839Z,4.97
2023-04-16T03:04:58.271Z,6.00
2023-04-16T03:07:24.730Z,5.38
2023-04-16T03:09:51.170Z,5.03
2023-04-16T03:12:17.504Z,5.43
2023-04-16T03:14:43.817Z,5.97
2023-04-16T03:17:10.189Z,6.70
2023-04-16T03:19:36.555Z,5.70
2023-04-16T03:22:02.943Z,5.85
2023-04-16T03:24:29.531Z,6.63
2023-04-16T03:26:57.744Z,6.05
2023-04-16T03:29:24.203Z,6.53
2023-04-16T03:31:50.546Z,7.28
2023-04-16T03:34:16.927Z,6.45
2023-04-16T03:36:43.337Z,6.18
2023-04-16T03:39:09.768Z,6.07
2023-04-16T03:41:36.498Z,5.87
2023-04-16T03:44:02.887Z,6.78
2023-04-16T03:46:29.236Z,5.55
2023-04-16T03:48:55.609Z,5.97
2023-04-16T03:51:21.959Z,5.38
2023-04-16T03:53:48.292Z,5.77
2023-04-16T03:56:14.635Z,6.15
2023-04-16T03:58:40.953Z,6.15
2023-04-16T04:01:07.346Z,7.00
2023-04-16T04:03:33.789Z,6.55
2023-04-16T04:06:00.452Z,7.03
2023-04-16T04:08:26.856Z,5.68
2023-04-16T04:10:53.241Z,6.35
2023-04-16T04:13:19.646Z,6.88
2023-04-16T04:15:46.005Z,6.97
2023-04-16T04:18:12.364Z,7.30
2023-04-16T04:20:41.468Z,6.57
2023-04-16T04:23:07.868Z,6.95
2023-04-16T04:25:34.249Z,6.43
2023-04-16T04:28:00.598Z,6.18
2023-04-16T04:30:26.978Z,6.67
2023-04-16T04:32:53.447Z,6.25
2023-04-16T04:35:19.901Z,7.20
2023-04-16T04:37:46.474Z,6.03
2023-04-16T04:40:13.093Z,5.97
2023-04-16T04:42:39.461Z,5.93
2023-04-16T04:45:06.588Z,6.35
2023-04-16T04:47:32.930Z,5.55
2023-04-16T04:49:59.280Z,5.97
2023-04-16T04:52:25.833Z,6.63
2023-04-16T04:54:52.990Z,5.97
2023-04-16T04:57:19.363Z,5.70
2023-04-16T04:59:46.050Z,6.40
2023-04-16T05:02:12.501Z,5.80
2023-04-16T05:04:39.017Z,6.97
2023-04-16T05:07:06.495Z,6.83
2023-04-16T05:09:32.925Z,6.38
2023-04-16T05:11:59.364Z,6.63
2023-04-16T05:14:25.781Z,6.40
2023-04-16T05:16:52.171Z,6.72
2023-04-16T05:19:18.588Z,5.87
2023-04-16T05:21:45.194Z,6.07
2023-04-16T05:24:13.639Z,6.53
2023-04-16T05:26:41.163Z,6.75
2023-04-16T05:29:07.772Z,6.13
2023-04-16T05:31:34.228Z,6.87
2023-04-16T05:34:00.596Z,7.00
2023-04-16T05:36:26.966Z,7.35
2023-04-16T05:38:53.305Z,6.60
2023-04-16T05:41:19.639Z,6.72
2023-04-16T05:43:45.970Z,6.57
2023-04-16T05:46:12.390Z,6.95
2023-04-16T05:48:38.721Z,6.53
2023-04-16T05:51:05.284Z,6.45
2023-04-16T05:53:31.696Z,6.95
2023-04-16T05:55:58.048Z,6.17
2023-04-16T05:58:24.437Z,5.85
2023-04-16T06:00:51.275Z,7.30
2023-04-16T06:03:17.828Z,6.10
2023-04-16T06:05:44.622Z,6.35
2023-04-16T06:08:11.063Z,6.23
2023-04-16T06:10:37.732Z,5.80
2023-04-16T06:13:04.100Z,6.32
2023-04-16T06:15:30.486Z,6.70
2023-04-16T06:18:00.192Z,6.82
2023-04-16T06:20:27.264Z,7.07
2023-04-16T06:22:53.679Z,6.70
2023-04-16T06:25:20.022Z,6.80
2023-04-16T06:27:46.450Z,7.13
2023-04-16T06:30:14.110Z,7.78
2023-04-16T06:32:40.840Z,7.40
2023-04-16T06:35:07.722Z,7.13
2023-04-16T06:37:34.056Z,7.88
2023-04-16T06:40:00.535Z,7.97
2023-04-16T06:42:27.716Z,7.97
2023-04-16T06:44:54.075Z,7.77
2023-04-16T06:47:21.048Z,7.20
2023-04-16T06:49:47.428Z,8.32
2023-04-16T06:52:13.781Z,7.97
2023-04-16T06:54:40.149Z,7.88
2023-04-16T06:57:06.460Z,7.63
2023-04-16T06:59:32.842Z,8.70
2023-04-16T07:01:59.329Z,8.32
2023-04-16T07:04:26.003Z,9.93
2023-04-16T07:06:52.588Z,9.18
2023-04-16T07:09:19.122Z,9.10
2023-04-16T07:11:45.663Z,9.68
2023-04-16T07:14:12.054Z,8.98
2023-04-16T07:16:38.447Z,9.18
2023-04-16T07:19:04.846Z,9.05
2023-04-16T07:21:31.800Z,10.23
2023-04-16T07:23:58.115Z,9.73
2023-04-16T07:26:24.468Z,9.63
2023-04-16T07:28:50.785Z,9.52
2023-04-16T07:31:17.414Z,8.30
2023-04-16T07:33:43.949Z,8.33
2023-04-16T07:36:10.973Z,8.75
2023-04-16T07:38:37.349Z,8.98
2023-04-16T07:41:03.910Z,8.55
2023-04-16T07:43:30.422Z,8.00
2023-04-16T07:45:56.958Z,8.17
2023-04-16T07:48:23.475Z,8.10
2023-04-16T07:50:50.237Z,7.65
2023-04-16T07:53:16.673Z,7.20
2023-04-16T07:55:43.068Z,7.72
2023-04-16T07:58:09.542Z,8.50
2023-04-16T08:00:36.014Z,7.35
2023-04-16T08:03:02.596Z,7.28
2023-04-16T08:05:29.292Z,8.25
2023-04-16T08:07:56.037Z,7.65
2023-04-16T08:10:22.477Z,7.20
2023-04-16T08:12:48.955Z,7.07
2023-04-16T08:15:15.379Z,6.85
2023-04-16T08:17:42.079Z,6.10
2023-04-16T08:20:09.514Z,6.15
2023-04-16T08:22:36.937Z,7.20
2023-04-16T08:25:04.003Z,5.50
2023-04-16T08:27:30.341Z,4.93
2023-04-16T08:29:56.832Z,5.65
2023-04-16T08:32:23.202Z,5.00
2023-04-16T08:34:49.710Z,4.80
2023-04-16T08:37:16.095Z,5.40
2023-04-16T08:39:42.504Z,5.88
2023-04-16T08:42:16.248Z,5.25
2023-04-16T08:44:49.410Z,4.60
2023-04-16T08:47:16.352Z,3.97
2023-04-16T08:49:44.972Z,4.63
2023-04-16T08:52:18.273Z,4.72
2023-04-16T08:55:14.330Z,4.70
2023-04-16T08:57:48.846Z,4.25
2023-04-16T09:00:18.048Z,4.70
2023-04-16T09:02:44.910Z,3.90
2023-04-16T09:05:16.975Z,4.15
2023-04-16T09:07:49.034Z,4.50
2023-04-16T09:10:16.449Z,4.05
2023-04-16T09:12:43.312Z,4.67
2023-04-16T09:15:11.294Z,4.68
2023-04-16T09:17:38.041Z,4.25
2023-04-16T09:20:09.177Z,4.28
2023-04-16T09:22:36.639Z,4.50
2023-04-16T09:25:03.576Z,4.37
2023-04-16T09:27:30.702Z,4.57
2023-04-16T09:29:57.116Z,4.32
2023-04-16T09:32:28.062Z,4.18
2023-04-16T09:34:58.516Z,4.57
2023-04-16T09:37:27.159Z,3.90
2023-04-16T09:39:58.827Z,4.50
2023-04-16T09:42:30.809Z,4.15
2023-04-16T09:44:59.873Z,4.47
2023-04-16T09:47:40.060Z,4.30
2023-04-16T09:50:08.545Z,3.83
2023-04-16T09:52:40.785Z,4.72
2023-04-16T09:55:07.435Z,5.43
2023-04-16T09:57:38.267Z,5.40
2023-04-16T10:00:08.805Z,5.10
2023-04-16T10:02:39.017Z,6.50
2023-04-16T10:05:06.393Z,6.13
2023-04-16T10:07:37.546Z,4.75
2023-04-16T10:10:04.659Z,5.00
2023-04-16T10:12:32.792Z,5.90
2023-04-16T10:14:59.424Z,5.20
2023-04-16T10:17:26.439Z,5.85
2023-04-16T10:19:54.671Z,6.88
2023-04-16T10:22:21.353Z,7.03
2023-04-16T10:24:48.873Z,7.07
2023-04-16T10:27:16.584Z,7.43
2023-04-16T10:29:44.433Z,7.85
2023-04-16T10:32:11.681Z,8.25
2023-04-16T10:34:38.113Z,7.43
2023-04-16T10:37:04.606Z,7.93
2023-04-16T10:39:31.029Z,7.07
2023-04-16T10:42:08.687Z,8.13
2023-04-16T10:44:35.396Z,7.20
2023-04-16T10:47:01.860Z,7.75
2023-04-16T10:49:28.264Z,7.82
2023-04-16T10:52:07.492Z,7.17
2023-04-16T10:54:36.098Z,7.85
2023-04-16T10:57:07.078Z,7.90
2023-04-16T10:59:36.018Z,7.07
2023-04-16T11:02:08.570Z,8.10
2023-04-16T11:04:37.500Z,7.73
2023-04-16T11:07:05.615Z,7.07
2023-04-16T11:09:45.901Z,6.68
2023-04-16T11:12:14.763Z,6.65
2023-04-16T11:14:42.000Z,7.85
2023-04-16T11:17:09.436Z,6.63
2023-04-16T11:19:36.971Z,7.18
2023-04-16T11:22:03.969Z,60.13
2023-04-16T11:24:31.746Z,6.07
2023-04-16T11:26:58.200Z,7.28
2023-04-16T11:29:24.789Z,7.20
2023-04-16T11:31:52.046Z,7.22
2023-04-16T11:34:19.129Z,7.22
2023-04-16T11:36:46.661Z,7.00
2023-04-16T11:39:13.122Z,7.57
2023-04-16T11:41:52.273Z,7.00
2023-04-16T11:44:22.516Z,7.18
2023-04-16T11:46:49.830Z,7.82
2023-04-16T11:49:17.586Z,6.95
2023-04-16T11:51:45.616Z,8.13
2023-04-16T11:54:20.294Z,7.47
2023-04-16T11:56:48.315Z,8.27
2023-04-16T11:59:18.983Z,7.38
2023-04-16T12:01:48.002Z,8.02
2023-04-16T12:04:16.494Z,8.13
2023-04-16T12:07:05.620Z,8.03
2023-04-16T12:09:32.260Z,8.68
2023-04-16T12:11:58.582Z,8.23
2023-04-16T12:14:24.887Z,8.95
2023-04-16T12:16:51.452Z,7.95
2023-04-16T12:19:18.750Z,7.60
2023-04-16T12:21:47.161Z,7.45
2023-04-16T12:24:21.076Z,7.72
2023-04-16T12:26:52.050Z,7.53
2023-04-16T12:29:27.436Z,7.30
2023-04-16T12:31:54.424Z,7.47
2023-04-16T12:34:21.799Z,7.38
2023-04-16T12:37:09.577Z,7.15
2023-04-16T12:39:36.083Z,6.22
2023-04-16T12:42:03.711Z,6.45
2023-04-16T12:44:30.149Z,6.83
2023-04-16T12:46:56.947Z,6.88
2023-04-16T12:49:23.264Z,6.45
2023-04-16T12:51:49.891Z,7.22
2023-04-16T12:54:16.496Z,6.63
2023-04-16T12:56:42.828Z,6.00
2023-04-16T13:01:37.090Z,5.95
2023-04-16T13:04:04.077Z,6.55
2023-04-16T13:06:33.631Z,7.88
2023-04-16T13:09:00.627Z,10.30
2023-04-16T13:11:27.378Z,7.88
2023-04-16T13:13:53.835Z,8.20
2023-04-16T13:16:20.258Z,7.65
2023-04-16T13:18:46.832Z,9.60
2023-04-16T13:21:13.413Z,9.17
2023-04-16T13:23:39.860Z,8.23
2023-04-16T13:26:06.245Z,10.05
2023-04-16T13:28:32.609Z,8.57
2023-04-16T13:30:59.622Z,8.75
2023-04-16T13:33:26.584Z,9.13
2023-04-16T13:35:53.044Z,8.18
2023-04-16T13:38:19.397Z,8.60
2023-04-16T13:40:45.916Z,8.25
2023-04-16T13:43:13.721Z,8.50
2023-04-16T13:45:40.253Z,8.20
2023-04-16T13:48:06.683Z,7.25
2023-04-16T13:50:33.239Z,8.25
2023-04-16T13:52:59.629Z,8.75
2023-04-16T13:55:26.117Z,7.13
2023-04-16T13:57:53.206Z,7.27
2023-04-16T14:00:20.314Z,6.50
2023-04-16T14:02:48.589Z,7.05
2023-04-16T14:05:15.512Z,7.38
2023-04-16T14:07:42.040Z,7.25
2023-04-16T14:10:09.000Z,7.37
2023-04-16T14:12:36.556Z,6.40
2023-04-16T14:15:04.436Z,7.05
2023-04-16T14:17:30.986Z,6.05
2023-04-16T14:19:57.407Z,7.32
2023-04-16T14:22:23.905Z,6.63
2023-04-16T14:24:50.325Z,6.18
2023-04-16T14:27:17.120Z,7.22
2023-04-16T14:29:44.304Z,6.53
2023-04-16T14:32:10.835Z,7.60
2023-04-16T14:34:37.302Z,6.60
2023-04-16T14:37:04.207Z,7.88
2023-04-16T14:39:30.980Z,6.55
2023-04-16T14:41:57.404Z,7.40
2023-04-16T14:44:23.901Z,7.20
2023-04-16T14:46:50.445Z,7.57
2023-04-16T14:49:17.164Z,7.40
2023-04-16T14:51:45.585Z,6.65
2023-04-16T14:54:11.987Z,6.90
2023-04-16T14:56:38.325Z,6.78
2023-04-16T14:59:04.725Z,7.73
2023-04-16T15:01:32.078Z,6.97
2023-04-16T15:04:01.906Z,7.82
2023-04-16T15:06:29.572Z,6.97
2023-04-16T15:08:55.975Z,7.13
2023-04-16T15:11:22.396Z,7.10
2023-04-16T15:13:48.739Z,7.10
2023-04-16T15:16:15.327Z,7.72
2023-04-16T15:18:41.811Z,7.30
2023-04-16T15:21:09.111Z,7.90
2023-04-16T15:23:37.154Z,7.17
2023-04-16T15:26:03.694Z,6.85
2023-04-16T15:28:30.126Z,9.07
2023-04-16T15:30:57.240Z,7.32
2023-04-16T15:33:23.956Z,8.15
2023-04-16T15:35:51.623Z,7.33
2023-04-16T15:38:21.203Z,7.88
2023-04-16T15:40:48.061Z,7.28
2023-04-16T15:43:15.608Z,7.60
2023-04-16T15:45:41.925Z,8.82
2023-04-16T15:48:08.804Z,9.03
2023-04-16T15:50:35.750Z,8.63
2023-04-16T15:53:02.195Z,8.35
2023-04-16T15:55:29.033Z,7.97
2023-04-16T15:57:55.550Z,7.57
2023-04-16T16:00:22.402Z,8.30
2023-04-16T16:02:48.875Z,8.93
2023-04-16T16:05:16.424Z,8.13
2023-04-16T16:07:43.794Z,8.40
2023-04-16T16:10:11.532Z,8.60
2023-04-16T16:12:37.893Z,7.90
2023-04-16T16:15:05.028Z,9.30
2023-04-16T16:17:31.488Z,8.15
2023-04-16T16:20:01.019Z,8.43
2023-04-16T16:22:27.574Z,8.35
2023-04-16T16:24:56.231Z,8.90
2023-04-16T16:27:22.879Z,9.40
2023-04-16T16:29:49.327Z,8.40
2023-04-16T16:32:16.591Z,8.70
2023-04-16T16:34:43.190Z,8.90
2023-04-16T16:37:09.633Z,9.03
2023-04-16T16:39:38.320Z,8.68
2023-04-16T16:42:05.203Z,9.23
2023-04-16T16:44:31.658Z,9.10
2023-04-16T16:46:58.137Z,8.52
2023-04-16T16:49:24.547Z,8.93
2023-04-16T16:51:50.882Z,8.88
2023-04-16T16:54:17.238Z,9.30
2023-04-16T16:56:43.581Z,8.82
2023-04-16T16:59:10.618Z,8.70
2023-04-16T17:01:37.287Z,9.80
2023-04-16T17:04:04.095Z,8.77
2023-04-16T17:06:31.630Z,8.88
2023-04-16T17:08:58.036Z,9.48
2023-04-16T17:11:26.943Z,9.73
2023-04-16T17:13:53.675Z,8.83
2023-04-16T17:16:20.092Z,9.95
2023-04-16T17:18:46.591Z,9.30
2023-04-16T17:21:14.569Z,8.63
2023-04-16T17:23:42.800Z,8.50
2023-04-16T17:26:09.117Z,10.00
2023-04-16T17:28:35.454Z,10.30
2023-04-16T17:31:02.810Z,9.65
2023-04-16T17:33:29.237Z,9.25
2023-04-16T17:35:55.744Z,9.63
2023-04-16T17:38:22.177Z,9.37
2023-04-16T17:40:48.527Z,9.32
2023-04-16T17:43:14.964Z,9.43
2023-04-16T17:45:41.395Z,9.35
2023-04-16T17:48:07.795Z,8.95
2023-04-16T17:50:34.176Z,8.77
2023-04-16T17:53:03.615Z,9.45
2023-04-16T17:55:30.853Z,9.25
2023-04-16T17:57:57.245Z,9.55
2023-04-16T18:00:23.750Z,9.43
2023-04-16T18:02:52.321Z,9.43
2023-04-16T18:05:21.951Z,8.82
2023-04-16T18:07:48.367Z,9.23
2023-04-16T18:10:14.891Z,8.75
2023-04-16T18:12:41.297Z,9.25
2023-04-16T18:15:08.342Z,9.40
2023-04-16T18:17:34.782Z,10.35
2023-04-16T18:20:01.247Z,10.98
2023-04-16T18:22:28.518Z,10.95
2023-04-16T18:24:55.097Z,10.68
2023-04-16T18:27:21.582Z,11.07
2023-04-16T18:29:49.376Z,11.32
2023-04-16T18:32:16.122Z,10.85
2023-04-16T18:34:42.611Z,10.98
2023-04-16T18:37:08.949Z,10.95
2023-04-16T18:39:36.697Z,11.67
2023-04-16T18:42:03.850Z,10.93
2023-04-16T18:44:30.429Z,11.68
2023-04-16T18:46:56.946Z,11.95
2023-04-16T18:49:23.605Z,11.40
2023-04-16T18:51:49.983Z,11.20
2023-04-16T18:54:16.510Z,12.10
2023-04-16T18:56:42.908Z,11.85
2023-04-16T18:59:09.529Z,12.75
2023-04-16T19:01:36.269Z,12.73
2023-04-16T19:04:03.399Z,11.47
2023-04-16T19:06:29.996Z,12.82
2023-04-16T19:08:56.434Z,12.43
2023-04-16T19:11:22.876Z,12.20
2023-04-16T19:13:49.228Z,12.30
2023-04-16T19:16:15.750Z,11.70
2023-04-16T19:18:42.265Z,12.60
2023-04-16T19:21:10.682Z,11.70
2023-04-16T19:23:37.351Z,11.80
2023-04-16T19:26:03.787Z,11.45
2023-04-16T19:28:30.221Z,11.97
2023-04-16T19:30:56.616Z,11.88
2023-04-16T19:33:23.002Z,11.65
2023-04-16T19:35:49.397Z,12.27
2023-04-16T19:38:15.744Z,10.98
2023-04-16T19:40:46.548Z,12.97
2023-04-16T19:43:13.066Z,11.63
2023-04-16T19:45:43.821Z,12.18
2023-04-16T19:48:11.127Z,11.65
2023-04-16T19:50:41.456Z,11.95
2023-04-16T19:53:08.536Z,12.13
2023-04-16T19:55:34.984Z,12.85
2023-04-16T19:58:05.526Z,12.50
2023-04-16T20:00:33.079Z,11.25
2023-04-16T20:02:59.619Z,12.38
2023-04-16T20:05:27.028Z,13.20
2023-04-16T20:07:54.084Z,12.48
2023-04-16T20:10:20.875Z,12.35
2023-04-16T20:12:47.516Z,12.93
2023-04-16T20:15:13.913Z,11.35
2023-04-16T20:17:40.378Z,12.60
2023-04-16T20:20:09.913Z,13.23
2023-04-16T20:22:40.005Z,13.32
2023-04-16T20:25:07.484Z,12.63
2023-04-16T20:27:33.945Z,13.10
2023-04-16T20:30:01.256Z,11.97
2023-04-16T20:32:28.118Z,12.82
2023-04-16T20:34:55.577Z,11.93
2023-04-16T20:37:22.050Z,13.32
2023-04-16T20:39:49.986Z,14.82
2023-04-16T20:42:16.761Z,13.73
2023-04-16T20:44:50.046Z,12.52
2023-04-16T20:47:17.189Z,13.52
2023-04-16T20:49:46.722Z,14.30
2023-04-16T20:52:14.003Z,13.70
2023-04-16T20:54:40.859Z,15.53
2023-04-16T20:57:07.464Z,14.05
2023-04-16T20:59:34.018Z,14.20
2023-04-16T21:02:00.539Z,14.05
2023-04-16T21:04:27.202Z,13.32
2023-04-16T21:06:53.731Z,14.60
2023-04-16T21:09:20.777Z,13.75
2023-04-16T21:11:47.178Z,14.05
2023-04-16T21:14:13.752Z,14.10
2023-04-16T21:16:40.316Z,14.82
2023-04-16T21:19:08.646Z,13.97
2023-04-16T21:21:35.360Z,13.70
2023-04-16T21:24:01.815Z,14.70
2023-04-16T21:26:28.208Z,14.23
2023-04-16T21:28:55.204Z,12.32
2023-04-16T21:31:21.978Z,12.27
2023-04-16T21:33:48.486Z,13.20
2023-04-16T21:36:15.441Z,13.15
2023-04-16T21:38:41.834Z,12.13
2023-04-16T21:41:08.212Z,12.57
2023-04-16T21:43:34.634Z,13.10
2023-04-16T21:46:00.984Z,12.65
2023-04-16T21:48:28.484Z,14.15
2023-04-16T21:50:59.910Z,13.02
2023-04-16T21:53:28.063Z,13.10
2023-04-16T21:55:54.487Z,12.40
2023-04-16T21:58:20.951Z,12.35
2023-04-16T22:00:47.485Z,12.77
2023-04-16T22:03:14.800Z,12.65
2023-04-16T22:05:41.297Z,13.13
2023-04-16T22:08:23.585Z,13.00
2023-04-16T22:10:51.238Z,14.20
2023-04-16T22:13:17.723Z,12.93
2023-04-16T22:15:44.074Z,13.80
2023-04-16T22:18:10.405Z,13.18
2023-04-16T22:20:39.119Z,13.67
2023-04-16T22:23:06.488Z,15.13
2023-04-16T22:25:33.030Z,14.02
2023-04-16T22:28:01.234Z,14.25
2023-04-16T22:30:27.611Z,14.50
2023-04-16T22:32:54.071Z,13.30
2023-04-16T22:35:20.511Z,13.48
2023-04-16T22:37:46.885Z,14.60
2023-04-16T22:40:13.267Z,14.57
2023-04-16T22:42:39.659Z,15.05
2023-04-16T22:45:07.160Z,14.83
2023-04-16T22:47:33.633Z,14.80
2023-04-16T22:50:00.245Z,15.75
2023-04-16T22:52:27.389Z,14.77
2023-04-16T22:54:53.749Z,14.50
2023-04-16T22:57:24.683Z,14.73
2023-04-16T22:59:52.126Z,16.00
2023-04-16T23:02:19.363Z,15.27
2023-04-16T23:04:48.822Z,15.38
2023-04-16T23:07:15.706Z,16.05
2023-04-16T23:09:42.452Z,15.67
2023-04-16T23:12:08.928Z,16.08
2023-04-16T23:14:36.751Z,15.50
2023-04-16T23:17:03.182Z,15.35
2023-04-16T23:19:31.109Z,14.57
2023-04-16T23:21:57.706Z,14.23
2023-04-16T23:24:24.083Z,15.15
2023-04-16T23:26:52.385Z,16.02
2023-04-16T23:29:19.194Z,15.68
2023-04-16T23:31:45.712Z,15.20
2023-04-16T23:34:12.054Z,16.20
2023-04-16T23:36:39.178Z,17.27
2023-04-16T23:39:05.488Z,16.50
2023-04-16T23:41:31.946Z,17.42
2023-04-16T23:43:58.359Z,15.85
2023-04-16T23:46:24.789Z,15.67
2023-04-16T23:48:52.585Z,15.57
2023-04-16T23:51:18.988Z,15.20
2023-04-16T23:53:45.360Z,16.45
2023-04-16T23:56:11.825Z,16.85
2023-04-16T23:58:38.220Z,15.33
